Time;durP1;ratioP1;P1;durP2;ratioP2;P2;SDS_P1;SDS_P2;PMS_P1;PMS_P2;Temp;Humidity;BMP_temperature;BMP_pressure;BME280_temperature;BME280_humidity;BME280_pressure;Samples;Min_cycle;Max_cycle;Signal;HPM_P1;HPM_P2
2022/04/29 00:01:32;;;;;;;9.53;8.53;;;12.90;87.50;;;13.00;58.46;95467.97;5076022;28;20811;-56
2022/04/29 00:03:59;;;;;;;9.40;7.70;;;12.90;87.80;;;13.00;58.22;95478.53;5077906;28;20516;-54
2022/04/29 00:06:28;;;;;;;10.40;8.97;;;12.90;88.00;;;12.97;58.49;95476.16;5074650;28;20466;-53
2022/04/29 00:08:56;;;;;;;7.27;6.57;;;12.90;88.10;;;12.96;58.59;95474.47;5071456;28;20458;-55
2022/04/29 00:11:27;;;;;;;8.83;7.93;;;12.80;88.10;;;12.95;58.59;95478.09;5081591;28;21006;-55
2022/04/29 00:13:55;;;;;;;9.07;8.23;;;12.80;88.80;;;12.90;58.67;95471.44;5073480;28;20458;-55
2022/04/29 00:16:22;;;;;;;7.57;6.87;;;12.80;88.10;;;12.89;58.59;95471.56;5075386;28;20479;-54
2022/04/29 00:18:49;;;;;;;9.50;8.27;;;12.80;88.10;;;12.87;58.88;95462.94;5077099;28;20482;-54
2022/04/29 00:21:16;;;;;;;9.10;8.10;;;12.80;88.20;;;12.86;58.76;95470.03;5067358;28;20505;-55
2022/04/29 00:23:44;;;;;;;11.10;8.30;;;12.70;88.40;;;12.86;59.05;95466.56;5074106;28;20462;-56
2022/04/29 00:26:13;;;;;;;8.63;7.80;;;12.80;88.70;;;12.84;58.77;95474.63;5072301;28;21129;-57
2022/04/29 00:28:40;;;;;;;8.83;7.93;;;12.80;88.60;;;12.84;58.88;95472.00;5076406;28;20462;-55
2022/04/29 00:31:07;;;;;;;8.43;7.63;;;12.70;88.60;;;12.81;58.62;95472.25;5068955;28;20471;-54
2022/04/29 00:33:35;;;;;;;8.93;8.07;;;12.70;88.20;;;12.77;58.93;95473.50;5073251;28;20455;-54
2022/04/29 00:36:02;;;;;;;9.10;8.20;;;12.70;88.40;;;12.74;59.11;95465.84;5071918;28;20475;-57
2022/04/29 00:38:29;;;;;;;9.20;7.63;;;12.70;88.60;;;12.73;58.83;95466.81;5071411;28;21010;-56
2022/04/29 00:40:57;;;;;;;9.07;8.20;;;12.60;88.40;;;12.73;59.20;95464.19;5064907;28;20471;-54
2022/04/29 00:43:26;;;;;;;10.40;9.30;;;12.60;88.80;;;12.70;58.89;95467.09;5067458;28;20835;-54
2022/04/29 00:45:53;;;;;;;8.20;7.40;;;12.60;88.60;;;12.70;58.83;95464.47;5074307;28;20486;-56
2022/04/29 00:48:20;;;;;;;8.97;8.07;;;12.60;88.60;;;12.69;58.90;95454.91;5077994;28;20462;-55
2022/04/29 00:50:48;;;;;;;8.20;7.40;;;12.60;88.90;;;12.68;58.97;95459.31;5080062;28;20569;-55
2022/04/29 00:53:15;;;;;;;10.67;8.37;;;12.60;88.70;;;12.66;58.84;95455.16;5071384;28;20451;-55
2022/04/29 00:55:42;;;;;;;8.97;8.07;;;12.60;88.80;;;12.65;58.98;95451.69;5078271;28;20478;-54
2022/04/29 00:58:14;;;;;;;11.90;8.67;;;12.60;88.80;;;12.66;59.11;95448.06;5068347;28;20494;-55
2022/04/29 01:00:43;;;;;;;8.80;7.93;;;12.60;89.30;;;12.67;58.95;95456.81;5073207;28;20479;-53
2022/04/29 01:03:12;;;;;;;9.27;7.73;;;12.60;89.20;;;12.65;59.10;95450.84;5072804;28;20464;-55
2022/04/29 01:05:40;;;;;;;10.93;8.80;;;12.60;89.20;;;12.65;58.90;95448.22;5068565;28;20530;-56
2022/04/29 01:08:08;;;;;;;9.47;8.47;;;12.60;89.20;;;12.63;58.99;95448.34;5072723;28;20862;-54
2022/04/29 01:10:35;;;;;;;9.23;8.33;;;12.60;89.00;;;12.61;59.05;95444.16;5066526;28;20475;-53
2022/04/29 01:13:04;;;;;;;9.97;8.67;;;12.60;89.30;;;12.58;59.00;95452.38;5075901;28;20458;-55
2022/04/29 01:15:31;;;;;;;13.30;8.60;;;12.50;88.80;;;12.55;58.87;95449.03;5065867;28;20868;-56
2022/04/29 01:18:03;;;;;;;9.20;8.30;;;12.50;89.20;;;12.54;59.36;95449.19;5075320;28;20489;-53
2022/04/29 01:20:32;;;;;;;10.07;9.00;;;12.50;89.20;;;12.54;59.22;95444.72;5064699;28;20505;-54
2022/04/29 01:23:05;;;;;;;10.17;7.77;;;12.40;89.40;;;12.52;59.20;95449.31;5071851;28;20450;-55
2022/04/29 01:25:32;;;;;;;8.70;7.90;;;12.40;89.20;;;12.51;59.18;95442.34;5076204;28;20807;-55
2022/04/29 01:27:59;;;;;;;9.03;8.13;;;12.50;89.10;;;12.49;58.86;95441.69;5068384;28;20472;-56
2022/04/29 01:30:27;;;;;;;8.07;7.27;;;12.40;88.80;;;12.45;59.13;95445.53;5067080;28;20844;-55
2022/04/29 01:32:54;;;;;;;8.87;7.20;;;12.40;88.70;;;12.40;58.89;95441.69;5060595;28;20840;-55
2022/04/29 01:35:22;;;;;;;9.83;7.20;;;12.30;88.40;;;12.33;59.09;95446.63;5063539;28;20903;-55
2022/04/29 01:37:49;;;;;;;9.27;8.37;;;12.30;88.70;;;12.28;59.04;95433.03;5072103;28;20450;-56
2022/04/29 01:40:18;;;;;;;11.17;7.30;;;12.20;88.80;;;12.23;58.98;95433.44;5062691;28;20933;-55
2022/04/29 01:42:45;;;;;;;9.30;7.53;;;12.20;88.80;;;12.23;58.96;95440.53;5073869;28;20450;-55
2022/04/29 01:45:13;;;;;;;8.03;7.33;;;12.10;89.00;;;12.20;59.11;95439.81;5067780;28;20501;-54
2022/04/29 01:47:40;;;;;;;8.33;7.53;;;12.10;89.10;;;12.18;59.31;95440.94;5078147;28;20446;-55
2022/04/29 01:50:08;;;;;;;8.20;7.50;;;12.10;89.10;;;12.17;59.25;95442.72;5075278;28;20521;-54
2022/04/29 01:52:35;;;;;;;12.50;8.07;;;12.10;89.40;;;12.18;59.42;95444.41;5074871;28;20468;-54
2022/04/29 01:55:02;;;;;;;9.00;7.40;;;12.10;89.50;;;12.20;59.42;95444.25;5076564;28;20476;-54
2022/04/29 01:57:31;;;;;;;9.40;7.97;;;12.10;89.50;;;12.19;59.32;95446.09;5079233;28;20977;-55
2022/04/29 01:59:58;;;;;;;9.00;7.73;;;12.10;89.20;;;12.18;59.20;95449.69;5078966;28;21247;-56
2022/04/29 02:02:25;;;;;;;8.87;7.97;;;12.10;89.20;;;12.16;59.18;95435.81;5078002;28;20489;-54
2022/04/29 02:04:53;;;;;;;8.00;7.27;;;12.10;89.30;;;12.17;59.21;95437.44;5079244;28;20485;-57
2022/04/29 02:07:20;;;;;;;10.03;8.53;;;12.10;89.50;;;12.17;59.46;95442.72;5061712;28;20451;-55
2022/04/29 02:09:47;;;;;;;9.37;7.90;;;12.10;89.30;;;12.18;59.43;95449.69;5072326;28;20481;-55
2022/04/29 02:12:15;;;;;;;9.17;8.17;;;12.10;89.40;;;12.17;59.46;95453.28;5060866;28;20462;-54
2022/04/29 02:14:44;;;;;;;9.10;8.20;;;12.10;89.70;;;12.17;59.24;95452.44;5064660;28;20854;-56
2022/04/29 02:17:12;;;;;;;11.97;9.00;;;12.10;89.50;;;12.19;59.56;95450.50;5068807;28;20509;-53
2022/04/29 02:19:39;;;;;;;11.37;9.20;;;12.10;89.70;;;12.20;59.56;95450.38;5067586;28;20493;-56
2022/04/29 02:22:08;;;;;;;10.20;9.07;;;12.10;90.00;;;12.22;59.63;95447.59;5065391;28;20459;-55
2022/04/29 02:24:36;;;;;;;10.07;8.57;;;12.10;90.10;;;12.24;59.80;95450.09;5061303;28;20943;-53
2022/04/29 02:27:04;;;;;;;10.27;9.27;;;12.10;90.00;;;12.27;59.50;95452.47;5066641;28;21008;-55
2022/04/29 02:29:31;;;;;;;11.03;8.93;;;12.20;90.10;;;12.29;59.84;95453.19;5065803;28;21023;-54
2022/04/29 02:32:00;;;;;;;11.77;9.97;;;12.20;90.10;;;12.30;59.30;95452.19;5065498;28;20464;-56
2022/04/29 02:34:27;;;;;;;12.80;10.60;;;12.20;90.10;;;12.33;59.72;95458.03;5073267;28;20453;-55
2022/04/29 02:36:54;;;;;;;11.43;10.17;;;12.30;90.20;;;12.35;59.45;95458.72;5078435;28;20462;-56
2022/04/29 02:39:22;;;;;;;10.90;9.70;;;12.30;90.20;;;12.36;59.86;95452.50;5065877;28;20505;-55
2022/04/29 02:41:49;;;;;;;12.10;10.77;;;12.30;90.20;;;12.39;59.83;95451.38;5077795;28;21000;-55
2022/04/29 02:44:16;;;;;;;11.63;10.50;;;12.30;90.20;;;12.42;59.81;95453.75;5070959;28;20985;-54
2022/04/29 02:49:26;;;;;;;10.77;9.60;;;12.30;90.20;;;12.46;59.97;95451.69;5079198;28;20458;-54
2022/04/29 02:51:53;;;;;;;11.23;9.97;;;12.40;90.20;;;12.48;59.91;95453.19;5076666;28;20477;-55
2022/04/29 02:54:21;;;;;;;11.90;9.53;;;12.40;90.40;;;12.50;60.31;95458.31;5071966;28;20458;-54
2022/04/29 02:56:50;;;;;;;10.53;9.53;;;12.40;90.60;;;12.50;60.24;95459.19;5075151;28;20510;-54
2022/04/29 02:59:18;;;;;;;11.50;10.03;;;12.40;90.50;;;12.51;60.14;95452.91;5074383;28;20490;-56
2022/04/29 03:01:45;;;;;;;14.43;9.43;;;12.40;90.60;;;12.50;60.07;95448.63;5074663;28;21112;-54
2022/04/29 03:04:12;;;;;;;10.80;8.57;;;12.40;90.60;;;12.52;60.39;95448.50;5068352;28;20729;-54
2022/04/29 03:06:41;;;;;;;11.90;10.20;;;12.40;90.80;;;12.53;60.29;95448.34;5070480;28;20474;-54
2022/04/29 03:09:09;;;;;;;9.70;8.70;;;12.40;90.70;;;12.55;60.47;95451.69;5077894;28;20864;-60
2022/04/29 03:11:36;;;;;;;16.20;9.90;;;12.40;90.80;;;12.57;60.37;95456.00;5072017;28;20482;-55
2022/04/29 03:14:04;;;;;;;13.77;10.70;;;12.50;90.90;;;12.58;60.46;95458.50;5075135;28;20458;-55
2022/04/29 03:16:31;;;;;;;12.20;10.70;;;12.50;90.90;;;12.59;60.46;95454.03;5069815;28;20483;-56
2022/04/29 03:18:58;;;;;;;12.27;10.60;;;12.50;91.00;;;12.58;60.51;95455.84;5075730;28;20490;-55
2022/04/29 03:21:26;;;;;;;11.87;10.07;;;12.50;91.00;;;12.58;60.88;95461.13;5076544;28;20483;-56
2022/04/29 03:23:54;;;;;;;15.03;9.47;;;12.50;91.00;;;12.59;60.66;95459.31;5064165;28;20466;-57
2022/04/29 03:26:22;;;;;;;12.33;9.40;;;12.50;91.10;;;12.59;60.97;95456.69;5071760;28;20582;-55
2022/04/29 03:28:50;;;;;;;11.47;10.13;;;12.50;91.10;;;12.60;60.84;95453.09;5070267;28;20994;-54
2022/04/29 03:31:17;;;;;;;13.50;11.10;;;12.50;91.20;;;12.60;60.87;95458.34;5065818;28;20474;-53
2022/04/29 03:33:44;;;;;;;15.07;11.57;;;12.50;91.20;;;12.63;60.99;95463.38;5065116;28;20485;-56
2022/04/29 03:36:12;;;;;;;11.07;9.60;;;12.50;91.40;;;12.63;60.72;95458.91;5063489;28;20613;-55
2022/04/29 03:38:40;;;;;;;10.20;9.20;;;12.50;91.30;;;12.63;60.83;95461.56;5065584;28;20864;-57
2022/04/29 03:41:14;;;;;;;12.80;9.90;;;12.50;91.30;;;12.63;60.74;95463.38;5077049;28;20918;-56
2022/04/29 03:43:41;;;;;;;14.43;8.80;;;12.50;91.30;;;12.59;60.99;95454.88;5072036;28;20854;-55
2022/04/29 03:46:08;;;;;;;13.33;9.50;;;12.50;91.30;;;12.61;60.76;95463.50;5063400;28;21062;-55
2022/04/29 03:51:17;;;;;;;11.83;9.03;;;12.50;91.20;;;12.60;60.73;95479.47;5076061;28;20964;-57
2022/04/29 03:53:44;;;;;;;11.80;9.70;;;12.50;91.20;;;12.59;60.82;95475.97;5075190;28;20458;-55
2022/04/29 03:56:13;;;;;;;12.30;9.63;;;12.50;91.30;;;12.60;61.15;95479.47;5073033;28;20486;-56
2022/04/29 03:58:40;;;;;;;12.33;9.87;;;12.50;91.40;;;12.61;60.91;95471.41;5079754;28;20450;-55
2022/04/29 04:01:07;;;;;;;10.57;8.97;;;12.50;91.40;;;12.61;61.00;95471.41;5082968;28;20462;-54
2022/04/29 04:03:34;;;;;;;12.97;10.07;;;12.50;91.50;;;12.65;61.00;95477.25;5078319;28;20458;-55
2022/04/29 04:08:46;;;;;;;10.80;9.67;;;12.50;91.50;;;12.72;61.09;95473.09;5080298;28;20433;-56
2022/04/29 04:11:15;;;;;;;10.60;9.40;;;12.60;91.60;;;12.76;61.23;95476.28;5080156;28;20551;-55
2022/04/29 04:13:42;;;;;;;9.83;8.83;;;12.60;91.80;;;12.78;61.10;95477.81;5080180;28;20458;-55
2022/04/29 04:16:10;;;;;;;11.10;10.00;;;12.70;91.80;;;12.82;61.33;95481.84;5076112;28;20882;-57
2022/04/29 04:18:37;;;;;;;14.93;10.90;;;12.70;92.10;;;12.87;61.53;95477.00;5070801;28;20793;-56
2022/04/29 04:21:04;;;;;;;12.67;10.13;;;12.80;92.00;;;12.94;61.20;95485.19;5063061;28;20476;-55
2022/04/29 04:23:31;;;;;;;10.20;9.20;;;12.80;92.00;;;12.97;61.15;95474.34;5064523;28;20458;-55
2022/04/29 04:25:59;;;;;;;11.27;9.97;;;12.80;91.80;;;13.02;61.29;95480.03;5064588;28;20592;-55
2022/04/29 04:28:27;;;;;;;13.10;10.60;;;12.90;91.90;;;13.05;60.98;95473.63;5061503;28;20947;-54
2022/04/29 04:30:55;;;;;;;14.03;11.77;;;12.90;91.70;;;13.07;61.27;95477.81;5063829;28;20486;-57
2022/04/29 04:33:22;;;;;;;15.73;10.60;;;12.90;91.80;;;13.12;61.13;95484.47;5059211;28;20911;-56
2022/04/29 04:35:49;;;;;;;13.67;11.23;;;13.00;91.90;;;13.15;61.41;95487.69;5060742;28;20505;-54
2022/04/29 04:38:16;;;;;;;14.47;12.30;;;13.00;91.80;;;13.18;61.33;95484.72;5059365;28;21002;-55
2022/04/29 04:40:44;;;;;;;16.10;11.83;;;13.00;92.00;;;13.23;61.29;95493.09;5077708;28;20989;-55
2022/04/29 04:43:11;;;;;;;14.80;12.30;;;13.10;92.00;;;13.31;61.47;95484.47;5063227;28;20552;-56
2022/04/29 04:45:40;;;;;;;17.07;11.13;;;13.20;92.10;;;13.36;61.45;95503.38;5061982;28;20486;-56
2022/04/29 04:48:08;;;;;;;20.40;12.50;;;13.20;92.10;;;13.39;61.46;95494.34;5067422;28;20439;-55
2022/04/29 04:50:35;;;;;;;16.80;11.63;;;13.20;92.10;;;13.41;60.72;95492.41;5068302;28;20477;-54
2022/04/29 04:53:02;;;;;;;23.40;12.07;;;13.30;92.00;;;13.43;61.27;95493.94;5070004;28;20798;-54
2022/04/29 04:55:30;;;;;;;15.60;12.63;;;13.30;91.90;;;13.45;61.16;95485.84;5075165;28;20482;-55
2022/04/29 04:57:57;;;;;;;18.80;12.60;;;13.30;91.90;;;13.49;61.19;95486.41;5074774;28;20446;-56
2022/04/29 05:00:25;;;;;;;18.27;13.67;;;13.40;91.80;;;13.51;61.27;95487.06;5072141;28;20878;-57
2022/04/29 05:02:54;;;;;;;23.20;15.63;;;13.40;91.90;;;13.53;61.40;95483.31;5069732;28;20465;-57
2022/04/29 05:05:21;;;;;;;22.53;15.80;;;13.40;91.90;;;13.55;61.11;95491.94;5075411;28;20466;-55
2022/04/29 05:07:48;;;;;;;19.13;13.00;;;13.40;92.00;;;13.60;61.50;95492.34;5072502;28;20453;-55
2022/04/29 05:10:15;;;;;;;24.13;14.20;;;13.50;92.20;;;13.63;61.29;95491.22;5073091;28;20463;-56
2022/04/29 05:12:43;;;;;;;17.97;13.03;;;13.50;92.10;;;13.68;61.45;95490.78;5073770;28;20515;-55
2022/04/29 05:15:12;;;;;;;23.80;13.73;;;13.50;92.00;;;13.74;61.10;95484.94;5071284;28;20830;-55
2022/04/29 05:17:39;;;;;;;22.27;13.87;;;13.60;91.90;;;13.81;61.34;95478.09;5074812;28;20450;-55
2022/04/29 05:20:10;;;;;;;20.97;13.20;;;13.60;92.00;;;13.88;61.26;95481.84;5069018;28;20485;-55
2022/04/29 05:22:37;;;;;;;16.80;12.90;;;13.70;91.90;;;13.97;61.10;95480.97;5075295;28;20448;-56
2022/04/29 05:25:06;;;;;;;18.30;13.60;;;13.80;91.90;;;14.08;60.67;95479.09;5074509;28;20477;-56
2022/04/29 05:27:33;;;;;;;19.23;13.50;;;13.90;92.00;;;14.17;60.84;95472.94;5067713;28;20502;-55
2022/04/29 05:30:01;;;;;;;16.40;12.30;;;14.00;91.90;;;14.32;60.48;95474.09;5078905;28;20993;-56
2022/04/29 05:32:29;;;;;;;38.47;14.70;;;14.10;91.70;;;14.48;60.10;95472.63;5068236;28;20447;-56
2022/04/29 05:34:58;;;;;;;16.63;13.03;;;14.30;91.70;;;14.70;59.96;95482.81;5074792;28;20553;-57
2022/04/29 05:37:28;;;;;;;23.30;13.83;;;14.50;91.50;;;14.87;59.39;95469.72;5074951;28;20517;-56
2022/04/29 05:42:41;;;;;;;19.00;14.27;;;14.80;91.00;;;15.31;58.42;95468.94;5079139;28;20476;-55
2022/04/29 05:45:09;;;;;;;34.93;25.30;;;15.00;90.50;;;15.43;58.74;95475.66;5076596;28;20482;-56
2022/04/29 05:47:37;;;;;;;31.93;22.50;;;15.10;90.80;;;15.57;58.80;95475.09;5079102;28;20519;-54
2022/04/29 05:50:05;;;;;;;15.30;12.07;;;15.30;90.80;;;15.73;58.01;95484.97;5072247;28;20527;-56
2022/04/29 05:52:34;;;;;;;18.77;11.13;;;15.50;90.10;;;15.86;57.59;95489.03;5078097;28;20450;-55
2022/04/29 05:55:01;;;;;;;18.47;14.47;;;15.60;89.50;;;15.88;57.28;95481.75;5078167;28;20469;-57
2022/04/29 05:57:28;;;;;;;13.30;11.40;;;15.60;88.80;;;15.98;56.51;95495.75;5076767;28;20450;-56
2022/04/29 05:59:58;;;;;;;16.60;12.77;;;15.70;87.80;;;16.06;57.01;95495.78;5077124;28;20497;-57
2022/04/29 06:02:26;;;;;;;16.77;11.83;;;15.80;88.00;;;16.14;56.76;95492.34;5083958;28;20457;-54
2022/04/29 06:04:53;;;;;;;12.30;10.40;;;15.90;87.50;;;16.23;56.15;95496.69;5081561;28;21085;-55
2022/04/29 06:07:20;;;;;;;10.50;9.43;;;16.00;86.80;;;16.24;55.82;95502.84;5080418;28;20450;-56
2022/04/29 06:09:49;;;;;;;11.50;9.53;;;16.00;85.90;;;16.27;55.81;95499.88;5083159;28;20451;-55
2022/04/29 06:12:16;;;;;;;12.13;10.07;;;16.00;85.50;;;16.33;55.27;95501.03;5080904;28;20483;-57
2022/04/29 06:14:45;;;;;;;12.40;9.17;;;16.10;84.50;;;16.36;54.05;95503.38;5081688;28;20455;-56
2022/04/29 06:17:12;;;;;;;8.33;7.53;;;16.10;82.50;;;16.33;53.81;95499.25;5083996;28;20990;-57
2022/04/29 06:19:40;;;;;;;10.00;8.97;;;16.10;81.60;;;16.27;54.85;95513.16;5073277;28;20914;-56
2022/04/29 06:22:07;;;;;;;11.10;10.00;;;16.10;83.00;;;16.26;55.33;95506.16;5080203;28;20511;-55
2022/04/29 06:24:34;;;;;;;15.10;9.87;;;16.10;84.00;;;16.29;55.17;95505.84;5072437;28;20448;-56
2022/04/29 06:27:03;;;;;;;11.30;10.10;;;16.10;83.90;;;16.37;54.95;95518.31;5082232;28;20457;-55
2022/04/29 06:29:31;;;;;;;12.67;10.03;;;16.20;83.60;;;16.39;54.92;95516.31;5077973;28;20959;-57
2022/04/29 06:31:58;;;;;;;11.53;10.27;;;16.20;83.40;;;16.44;54.58;95514.88;5085116;28;20489;-56
2022/04/29 06:34:25;;;;;;;13.10;11.10;;;16.20;83.30;;;16.52;54.73;95513.25;5084702;28;20450;-55
2022/04/29 06:36:52;;;;;;;13.00;10.67;;;16.30;83.20;;;16.59;54.53;95509.78;5087323;28;20852;-55
2022/04/29 06:39:20;;;;;;;14.40;10.57;;;16.30;82.50;;;16.70;54.57;95513.13;5081292;28;20449;-54
2022/04/29 06:41:47;;;;;;;18.30;10.57;;;16.40;82.70;;;16.82;54.36;95507.34;5083085;28;20522;-55
2022/04/29 06:44:15;;;;;;;18.43;9.73;;;16.60;83.10;;;16.99;54.08;95513.56;5083998;28;20450;-55
2022/04/29 06:46:44;;;;;;;13.27;10.00;;;16.70;82.70;;;17.16;54.21;95503.75;5084235;28;20550;-56
2022/04/29 06:49:11;;;;;;;31.87;9.70;;;16.80;82.80;;;17.34;52.45;95500.97;5083418;28;20454;-55
2022/04/29 06:51:39;;;;;;;10.83;9.70;;;17.00;80.30;;;17.48;53.25;95493.31;5083949;28;20857;-55
2022/04/29 06:54:06;;;;;;;11.00;9.60;;;17.20;80.80;;;17.66;52.82;95503.75;5080944;28;20446;-56
2022/04/29 06:56:33;;;;;;;11.10;9.27;;;17.30;80.60;;;17.83;52.60;95492.09;5077332;28;20476;-56
2022/04/29 06:59:03;;;;;;;10.90;9.83;;;17.50;80.00;;;17.99;52.18;95501.91;5081824;28;20457;-55
2022/04/29 07:01:32;;;;;;;10.60;9.50;;;17.70;79.80;;;18.17;52.33;95501.72;5082566;28;20491;-56
2022/04/29 07:04:00;;;;;;;12.33;8.80;;;17.80;78.80;;;18.34;51.70;95490.97;5083221;28;20468;-55
2022/04/29 07:06:27;;;;;;;10.47;9.20;;;18.00;78.20;;;18.51;51.35;95492.56;5079979;28;20470;-56
2022/04/29 07:08:54;;;;;;;12.80;9.93;;;18.20;77.10;;;18.73;51.03;95490.97;5076646;28;20446;-55
2022/04/29 07:11:22;;;;;;;8.80;8.10;;;18.40;77.40;;;18.99;50.54;95495.16;5072326;28;20523;-56
2022/04/29 07:13:51;;;;;;;10.50;9.50;;;18.60;76.40;;;19.19;49.99;95482.19;5077774;28;20557;-54
2022/04/29 07:16:19;;;;;;;13.70;8.53;;;18.80;74.70;;;19.39;50.21;95484.38;5076626;28;20592;-56
2022/04/29 07:18:48;;;;;;;10.80;9.70;;;19.00;74.80;;;19.56;49.54;95485.91;5077964;28;20508;-57
2022/04/29 07:21:17;;;;;;;11.97;8.63;;;19.20;74.10;;;19.74;48.68;95493.59;5079518;28;20494;-56
2022/04/29 07:23:44;;;;;;;9.83;8.77;;;19.40;72.70;;;19.80;48.27;95484.03;5082402;28;21029;-56
2022/04/29 07:26:12;;;;;;;11.60;8.80;;;19.50;70.10;;;19.85;48.46;95479.00;5073353;28;20474;-56
2022/04/29 07:28:39;;;;;;;12.33;9.33;;;19.60;70.10;;;19.90;47.54;95476.59;5082170;28;20980;-56
2022/04/29 07:31:06;;;;;;;13.57;8.30;;;19.60;69.00;;;19.99;46.84;95480.03;5083699;28;20474;-55
2022/04/29 07:33:34;;;;;;;7.43;6.73;;;19.60;67.00;;;20.08;47.17;95478.91;5083810;28;20473;-57
2022/04/29 07:41:48;;;;;;;10.63;8.10;;;19.90;64.90;;;20.41;46.36;95473.19;5083714;28;20503;-55
2022/04/29 07:44:16;;;;;;;8.57;7.70;;;20.10;66.20;;;20.65;46.14;95477.44;5075946;28;20487;-55
2022/04/29 07:46:46;;;;;;;8.50;7.70;;;20.30;65.20;;;20.80;45.01;95476.56;5084806;28;20474;-56
2022/04/29 07:49:13;;;;;;;8.20;7.40;;;20.40;63.00;;;20.76;45.19;95479.59;5078959;28;20516;-57
2022/04/29 07:51:42;;;;;;;13.47;10.13;;;20.50;62.60;;;20.68;44.71;95487.75;5081474;28;20580;-56
2022/04/29 07:54:09;;;;;;;14.53;11.07;;;20.40;61.00;;;20.53;44.45;95481.56;5078964;28;20539;-55
2022/04/29 07:56:37;;;;;;;19.90;11.97;;;20.30;60.90;;;20.32;44.49;95485.81;5079705;28;20781;-56
2022/04/29 07:59:05;;;;;;;8.17;7.37;;;20.10;60.00;;;20.04;43.64;95478.44;5081846;28;20532;-57
2022/04/29 08:01:33;;;;;;;15.13;8.13;;;19.90;58.60;;;19.77;44.95;95477.22;5078764;28;20522;-55
2022/04/29 08:04:01;;;;;;;7.70;6.30;;;19.60;61.20;;;19.59;45.73;95474.03;5080572;28;20585;-58
2022/04/29 08:06:28;;;;;;;7.80;7.10;;;19.40;62.20;;;19.43;45.66;95483.03;5081481;28;20561;-56
2022/04/29 08:08:57;;;;;;;8.17;7.37;;;19.30;61.30;;;19.29;45.12;95480.13;5079567;28;20450;-57
2022/04/29 08:11:25;;;;;;;7.43;6.73;;;19.10;61.30;;;19.23;45.88;95478.16;5073620;28;20599;-57
2022/04/29 08:13:53;;;;;;;10.17;6.87;;;19.00;62.30;;;19.16;45.96;95477.22;5081548;28;20540;-57
2022/04/29 08:16:21;;;;;;;10.20;6.90;;;18.90;62.60;;;19.10;45.58;95467.25;5076842;28;20539;-57
2022/04/29 08:18:48;;;;;;;8.13;7.20;;;18.90;62.60;;;19.07;46.02;95470.28;5075334;28;20460;-57
2022/04/29 08:21:15;;;;;;;10.40;7.70;;;18.80;61.80;;;19.01;45.77;95473.66;5076828;28;20948;-57
2022/04/29 08:23:43;;;;;;;7.17;6.40;;;18.80;61.80;;;18.97;45.88;95470.53;5077420;28;20838;-55
2022/04/29 08:26:12;;;;;;;6.73;6.13;;;18.70;62.20;;;18.94;46.09;95470.88;5078406;28;20482;-56
2022/04/29 08:28:41;;;;;;;7.93;7.00;;;18.70;62.00;;;18.93;45.69;95464.72;5085996;28;20916;-56
2022/04/29 08:31:08;;;;;;;7.43;6.73;;;18.70;61.90;;;18.95;45.59;95468.03;5081416;28;20976;-57
2022/04/29 08:33:36;;;;;;;6.80;6.30;;;18.70;61.70;;;19.01;44.91;95468.31;5080603;28;21029;-57
2022/04/29 08:36:04;;;;;;;8.70;6.93;;;18.70;60.90;;;19.08;45.88;95478.09;5081078;28;20462;-57
2022/04/29 08:38:32;;;;;;;7.17;6.57;;;18.80;62.00;;;19.17;45.41;95471.69;5082342;28;20477;-57
2022/04/29 08:41:02;;;;;;;7.50;6.80;;;18.90;61.30;;;19.27;44.90;95471.47;5079533;28;20490;-56
2022/04/29 08:43:32;;;;;;;6.67;6.13;;;19.00;60.90;;;19.38;44.78;95461.38;5083460;28;20548;-56
2022/04/29 08:45:59;;;;;;;7.87;7.10;;;19.10;60.20;;;19.48;44.27;95461.97;5081764;28;20478;-57
2022/04/29 08:48:27;;;;;;;7.03;6.33;;;19.20;59.90;;;19.57;43.27;95460.88;5068710;28;20549;-55
2022/04/29 08:50:54;;;;;;;12.30;6.33;;;19.30;58.20;;;19.60;43.59;95455.19;5078052;28;20488;-55
2022/04/29 08:53:21;;;;;;;9.73;7.03;;;19.30;58.40;;;19.65;43.92;95452.78;5072306;28;20478;-57
2022/04/29 08:58:39;;;;;;;8.17;5.63;;;19.40;58.60;;;19.88;43.80;95447.41;5075172;28;20430;-56
2022/04/29 09:01:09;;;;;;;6.20;5.70;;;19.50;58.60;;;20.13;43.00;95447.13;5072109;28;21010;-55
2022/04/29 09:03:37;;;;;;;6.67;6.17;;;19.70;57.00;;;20.41;42.77;95447.28;5078379;28;20454;-56
2022/04/29 09:06:05;;;;;;;6.93;6.30;;;20.00;57.30;;;20.63;41.74;95441.16;5072097;28;20475;-56
2022/04/29 09:08:39;;;;;;;6.43;5.93;;;20.20;56.40;;;20.82;41.55;95437.09;5077063;28;20543;-56
2022/04/29 09:11:07;;;;;;;6.47;5.87;;;20.40;55.80;;;20.98;41.48;95436.03;5071405;28;21121;-55
2022/04/29 09:13:37;;;;;;;6.50;6.00;;;20.60;55.70;;;21.06;41.02;95435.91;5074797;28;20868;-55
2022/04/29 09:16:10;;;;;;;6.50;5.90;;;20.70;54.70;;;21.17;40.90;95437.22;5075827;28;20475;-57
2022/04/29 09:18:40;;;;;;;5.50;5.00;;;20.80;54.70;;;21.38;40.75;95434.53;5067192;28;20443;-57
2022/04/29 09:21:09;;;;;;;5.53;5.03;;;21.00;54.30;;;21.65;40.24;95426.75;5071793;28;20501;-55
2022/04/29 09:23:38;;;;;;;6.70;6.10;;;21.30;53.80;;;21.93;39.92;95429.38;5068817;28;20450;-57
2022/04/29 09:26:06;;;;;;;6.30;5.63;;;21.50;53.20;;;22.16;39.58;95430.97;5075275;28;20636;-56
2022/04/29 09:28:35;;;;;;;6.00;5.60;;;21.70;53.00;;;22.31;38.82;95434.38;5079507;28;20526;-57
2022/04/29 09:31:03;;;;;;;14.47;6.30;;;22.00;51.70;;;22.36;38.34;95431.09;5076714;28;20835;-57
2022/04/29 09:33:32;;;;;;;5.93;5.47;;;22.00;50.40;;;22.24;38.02;95432.66;5073804;28;20462;-55
2022/04/29 09:35:59;;;;;;;5.97;5.57;;;22.00;49.50;;;22.09;38.22;95425.59;5076271;28;20470;-56
2022/04/29 09:41:11;;;;;;;6.53;4.90;;;21.80;48.90;;;21.89;38.04;95433.50;5082661;28;20480;-56
2022/04/29 09:43:42;;;;;;;6.53;6.03;;;21.60;49.80;;;21.74;38.20;95425.56;5056419;28;20458;-55
2022/04/29 09:46:15;;;;;;;6.83;6.00;;;21.50;50.00;;;21.66;38.44;95441.78;5055692;28;20837;-56
2022/04/29 09:49:11;;;;;;;4.80;4.50;;;21.40;50.30;;;21.57;37.61;95437.59;5044680;28;20963;-57
2022/04/29 09:51:47;;;;;;;7.83;6.00;;;21.30;49.50;;;21.48;38.67;95434.19;4994577;28;20564;-56
2022/04/29 09:54:20;;;;;;;5.93;5.43;;;21.20;50.10;;;21.40;38.31;95442.38;5050129;28;20451;-56
2022/04/29 09:57:02;;;;;;;6.00;5.60;;;21.20;50.10;;;21.33;38.13;95431.59;5052377;28;21025;-56
2022/04/29 09:59:33;;;;;;;5.20;4.87;;;21.10;50.00;;;21.23;38.36;95431.13;5059771;28;20451;-56
2022/04/29 10:02:01;;;;;;;5.90;5.37;;;21.00;49.90;;;21.09;37.69;95432.84;5051889;28;20489;-56
2022/04/29 10:04:31;;;;;;;5.40;5.00;;;20.80;48.60;;;20.96;38.62;95422.84;5056182;28;20446;-56
2022/04/29 10:06:58;;;;;;;5.80;5.33;;;20.70;49.70;;;20.83;38.52;95418.19;5056956;28;20553;-58
2022/04/29 10:09:28;;;;;;;7.13;5.20;;;20.60;49.60;;;20.77;39.33;95419.78;5058377;28;20902;-56
2022/04/29 10:11:56;;;;;;;6.80;5.87;;;20.50;50.70;;;20.81;38.98;95419.41;5048725;28;20464;-57
2022/04/29 10:14:23;;;;;;;6.73;6.23;;;20.60;51.10;;;20.84;39.44;95419.03;5056340;28;20860;-58
2022/04/29 10:22:18;;;;;;;6.40;5.90;;;20.60;50.70;;;20.98;38.85;95410.09;5059291;28;20917;-58
2022/04/29 10:24:45;;;;;;;6.13;5.63;;;20.70;50.80;;;21.01;39.05;95412.41;5056814;28;20448;-56
2022/04/29 10:27:13;;;;;;;6.67;6.13;;;20.70;50.60;;;21.11;38.95;95410.22;5059105;28;20534;-57
2022/04/29 10:29:40;;;;;;;6.67;6.00;;;20.80;50.50;;;21.21;39.04;95407.22;5057415;28;20444;-57
2022/04/29 10:32:10;;;;;;;5.70;5.20;;;20.90;50.90;;;21.36;38.97;95411.66;5059582;28;20450;-56
2022/04/29 10:34:38;;;;;;;6.70;6.10;;;21.00;50.80;;;21.55;38.80;95410.19;5055299;28;20758;-57
2022/04/29 10:37:12;;;;;;;9.77;6.60;;;21.10;50.70;;;21.78;38.46;95404.56;5054229;28;20511;-57
2022/04/29 10:39:40;;;;;;;7.03;6.33;;;21.40;50.30;;;22.01;38.25;95404.28;5048859;28;20661;-56
2022/04/29 10:42:09;;;;;;;7.37;6.70;;;21.60;50.50;;;22.13;37.92;95402.72;5059598;28;20494;-55
2022/04/29 10:44:59;;;;;;;9.20;6.77;;;21.70;49.70;;;22.19;37.50;95403.78;5056218;28;20447;-57